Aérodrome :
LOGIN :

S'inscrire | Disclaimer

   EN    FR    IT 

 










Légende :    VFR   VFR Marginal   IFR   IFR Intensif   IFR Très Intensif
Visi : 
Plafond : 
>= 8 km
>= 3000ft
5 à 8 km
1000 à 3000 ft
1500m à 5 km
500 à 1000 ft
800 à 1500m
200 à 500 ft
< 800m
< 200 ft
Symboles :   Orages  Brouillard  Fortes neiges  Fortes précipitations  Vent > 20 kt
SIGMETs :   Divers  Orages  Givrage  Turbulence  Onde Orograph.  Cendres Volcan.






- Altitude de l'aérodrome : 174 ft
- Code IATA : RYG


ENRY - Moss , Rygge

DERNIER METAR :
  • 142350Z AUTO 33004KT 3200NDV BR BKN001/// OVC004/// 02/02 Q1018

METARs EXPIRÉS :
  • 142320Z AUTO 36003KT 2600NDV BR OVC004/// 03/02 Q1018
  • 142250Z AUTO 35003KT 2900NDV BR FEW002/// OVC004/// 03/02 Q1017
  • 142220Z 33005KT 2600 BR OVC004 03/02 Q1017
  • 142150Z 35002KT 2300 BR OVC005 03/02 Q1016
  • 142120Z 01003KT 3100 -DZ BKN004 OVC006 03/02 Q1016

TAF TAF ENRY
Valide du 15 à 00h jusqu'au 16 à 00h UTC


1500/1524 03008KT 2000 OVC003
PROB40 1500/1512 0300 FG VV001
BECMG 1512/1514 FEW010 BKN020



MET'MAP, la Météo Aéronautique d'un coup d'oeil ! - Copyright ORBIFLY Décembre 2007 - Disclaimer

ORBIFLY MET'MAP TEAM :

Programmation & Développement : Alexandra Zaïnal
Conception & Développement : Baudouin d'Aumeries
Co-Programmation & Développement : Marc-Olivier Méhu
Soutien technique & logistique : Manuel Goepfert

Contact : metmap@orbifly.com




SOURCES & CREDITS :

   NOAA